createdAt,value
2023-05-21T00:00:53.806Z,101444.44
2023-05-21T00:03:21.147Z,101437.47
2023-05-21T00:05:50.124Z,101445.56
2023-05-21T00:08:16.908Z,101446.38
2023-05-21T00:10:43.440Z,101439.47
2023-05-21T00:13:10.486Z,101436.31
2023-05-21T00:15:37.604Z,101442.13
2023-05-21T00:18:04.400Z,101428.84
2023-05-21T00:20:32.419Z,101431.44
2023-05-21T00:22:59.797Z,101423.06
2023-05-21T00:25:26.272Z,101428.50
2023-05-21T00:27:52.724Z,101427.69
2023-05-21T00:30:19.308Z,101423.41
2023-05-21T00:32:45.876Z,101416.66
2023-05-21T00:35:12.755Z,101412.94
2023-05-21T00:37:41.217Z,101404.78
2023-05-21T00:40:09.170Z,101391.22
2023-05-21T00:42:39.934Z,101400.50
2023-05-21T00:45:07.921Z,101402.50
2023-05-21T00:47:35.200Z,101405.94
2023-05-21T00:50:04.612Z,101405.94
2023-05-21T00:52:31.404Z,101404.50
2023-05-21T00:54:57.988Z,101395.94
2023-05-21T00:57:27.245Z,101393.16
2023-05-21T00:59:54.069Z,101389.41
2023-05-21T01:02:20.747Z,101395.03
2023-05-21T01:04:47.342Z,101383.47
2023-05-21T01:07:14.558Z,101390.31
2023-05-21T01:09:42.452Z,101387.38
2023-05-21T01:12:10.892Z,101382.66
2023-05-21T01:14:37.991Z,101378.56
2023-05-21T01:17:06.431Z,101375.28
2023-05-21T01:19:35.482Z,101378.94
2023-05-21T01:22:14.277Z,101374.00
2023-05-21T01:24:41.484Z,101372.13
2023-05-21T01:27:10.465Z,101376.72
2023-05-21T01:29:37.039Z,101365.56
2023-05-21T01:32:49.039Z,101368.56
2023-05-21T01:35:22.559Z,101369.38
2023-05-21T01:37:55.841Z,101366.66
2023-05-21T01:40:35.818Z,101365.66
2023-05-21T01:43:05.733Z,101363.38
2023-05-21T01:45:33.428Z,101362.00
2023-05-21T01:48:00.552Z,101354.84
2023-05-21T01:50:27.735Z,101361.13
2023-05-21T01:53:00.989Z,101360.31
2023-05-21T01:55:28.184Z,101361.75
2023-05-21T01:57:55.783Z,101362.41
2023-05-21T02:00:24.592Z,101354.38
2023-05-21T02:02:51.858Z,101354.44
2023-05-21T02:05:18.720Z,101358.38
2023-05-21T02:07:46.135Z,101331.81
2023-05-21T02:10:12.878Z,101352.56
2023-05-21T02:12:39.676Z,101352.09
2023-05-21T02:15:06.799Z,101350.94
2023-05-21T02:17:34.224Z,101348.28
2023-05-21T02:20:13.580Z,101343.72
2023-05-21T02:22:47.970Z,101347.00
2023-05-21T02:25:18.329Z,101341.28
2023-05-21T02:27:46.579Z,101347.00
2023-05-21T02:30:15.152Z,101345.06
2023-05-21T02:32:43.262Z,101339.34
2023-05-21T02:35:11.787Z,101344.59
2023-05-21T02:37:40.509Z,101350.88
2023-05-21T02:40:09.806Z,101346.41
2023-05-21T02:42:39.494Z,101331.34
2023-05-21T02:45:11.306Z,101330.06
2023-05-21T02:47:40.999Z,101341.06
2023-05-21T02:50:09.057Z,101344.88
2023-05-21T02:52:35.670Z,101337.31
2023-05-21T02:55:02.204Z,101336.50
2023-05-21T02:57:28.676Z,101332.31
2023-05-21T02:59:55.172Z,101322.31
2023-05-21T03:02:21.733Z,101326.75
2023-05-21T03:04:48.847Z,101335.75
2023-05-21T03:07:19.139Z,101330.00
2023-05-21T03:09:46.509Z,101328.22
2023-05-21T03:12:13.106Z,101314.94
2023-05-21T03:14:39.636Z,101328.84
2023-05-21T03:17:06.460Z,101318.50
2023-05-21T03:19:36.764Z,101320.94
2023-05-21T03:22:04.563Z,101316.69
2023-05-21T03:24:31.808Z,101320.84
2023-05-21T03:27:01.508Z,101323.31
2023-05-21T03:29:28.710Z,101318.38
2023-05-21T03:31:55.820Z,101316.91
2023-05-21T03:34:22.440Z,101317.91
2023-05-21T03:36:49.573Z,101312.31
2023-05-21T03:39:16.326Z,101314.47
2023-05-21T03:41:43.318Z,101313.84
2023-05-21T03:44:09.868Z,101308.38
2023-05-21T03:46:36.481Z,101310.69
2023-05-21T03:49:03.186Z,101313.31
2023-05-21T03:51:31.721Z,101315.13
2023-05-21T03:53:59.170Z,101320.19
2023-05-21T03:56:26.256Z,101320.00
2023-05-21T03:58:53.000Z,101322.66
2023-05-21T04:01:19.597Z,101327.22
2023-05-21T04:03:46.372Z,101319.19
2023-05-21T04:06:13.028Z,101331.00
2023-05-21T04:08:39.686Z,101310.97
2023-05-21T04:11:06.228Z,101324.06
2023-05-21T04:13:32.694Z,101327.84
2023-05-21T04:15:59.756Z,101318.66
2023-05-21T04:18:26.758Z,101319.41
2023-05-21T04:20:53.920Z,101320.88
2023-05-21T04:23:23.499Z,101325.44
2023-05-21T04:25:50.919Z,101329.81
2023-05-21T04:28:21.096Z,101335.53
2023-05-21T04:30:47.904Z,101323.38
2023-05-21T04:33:17.824Z,101325.75
2023-05-21T04:35:46.259Z,101327.56
2023-05-21T04:38:12.760Z,101325.94
2023-05-21T04:40:40.647Z,101340.47
2023-05-21T04:43:08.096Z,101333.19
2023-05-21T04:45:34.700Z,101337.09
2023-05-21T04:48:01.458Z,101341.31
2023-05-21T04:50:30.664Z,101342.13
2023-05-21T04:52:58.825Z,101336.13
2023-05-21T04:55:25.945Z,101334.75
2023-05-21T04:57:53.017Z,101345.41
2023-05-21T05:00:20.328Z,101329.84
2023-05-21T05:02:46.889Z,101342.50
2023-05-21T05:05:13.457Z,101338.09
2023-05-21T05:07:40.081Z,101330.03
2023-05-21T05:10:15.703Z,101338.13
2023-05-21T05:12:42.280Z,101339.75
2023-05-21T05:15:09.193Z,101341.38
2023-05-21T05:17:35.684Z,101330.28
2023-05-21T05:20:02.265Z,101327.84
2023-05-21T05:22:28.845Z,101328.09
2023-05-21T05:24:55.336Z,101329.75
2023-05-21T05:27:21.878Z,101318.81
2023-05-21T05:29:48.380Z,101323.72
2023-05-21T05:32:14.935Z,101314.34
2023-05-21T05:34:42.744Z,101323.34
2023-05-21T05:37:09.208Z,101307.44
2023-05-21T05:39:35.819Z,101311.59
2023-05-21T05:42:11.391Z,101312.94
2023-05-21T05:44:37.908Z,101316.97
2023-05-21T05:47:09.079Z,101316.41
2023-05-21T05:49:36.036Z,101316.19
2023-05-21T05:52:02.840Z,101309.03
2023-05-21T05:54:29.303Z,101306.66
2023-05-21T05:56:55.962Z,101312.84
2023-05-21T05:59:22.489Z,101309.88
2023-05-21T06:01:49.034Z,101306.88
2023-05-21T06:04:15.499Z,101303.59
2023-05-21T06:06:42.149Z,101304.59
2023-05-21T06:09:08.697Z,101294.72
2023-05-21T06:11:35.269Z,101303.25
2023-05-21T06:14:04.228Z,101295.34
2023-05-21T06:16:48.984Z,101290.06
2023-05-21T06:19:15.658Z,101286.47
2023-05-21T06:21:42.197Z,101295.03
2023-05-21T06:24:08.745Z,101292.25
2023-05-21T06:26:35.434Z,101301.00
2023-05-21T06:29:03.764Z,101315.47
2023-05-21T06:31:36.514Z,101302.88
2023-05-21T06:34:04.039Z,101288.47
2023-05-21T06:36:32.385Z,101286.69
2023-05-21T06:39:06.632Z,101293.72
2023-05-21T06:41:33.381Z,101296.53
2023-05-21T06:43:59.856Z,101293.53
2023-05-21T06:46:26.412Z,101286.16
2023-05-21T06:48:53.094Z,101286.06
2023-05-21T06:51:19.583Z,101297.13
2023-05-21T06:53:46.189Z,101284.72
2023-05-21T06:56:13.128Z,101300.28
2023-05-21T06:58:39.680Z,101310.50
2023-05-21T07:01:12.514Z,101311.81
2023-05-21T07:03:39.136Z,101299.22
2023-05-21T07:06:06.544Z,101303.31
2023-05-21T07:08:33.578Z,101294.81
2023-05-21T07:11:00.226Z,101303.03
2023-05-21T07:13:26.661Z,101304.47
2023-05-21T07:15:53.796Z,101300.41
2023-05-21T07:18:21.228Z,101282.91
2023-05-21T07:20:47.897Z,101291.09
2023-05-21T07:23:14.611Z,101289.47
2023-05-21T07:25:41.052Z,101283.34
2023-05-21T07:28:07.588Z,101289.25
2023-05-21T07:30:34.187Z,101294.94
2023-05-21T07:33:00.925Z,101297.41
2023-05-21T07:35:27.537Z,101307.38
2023-05-21T07:37:56.715Z,101304.31
2023-05-21T07:40:27.463Z,101240.94
2023-05-21T07:43:01.768Z,101295.97
2023-05-21T07:45:37.416Z,101226.91
2023-05-21T07:48:04.590Z,101239.75
2023-05-21T07:50:45.755Z,101258.47
2023-05-21T07:53:21.499Z,101233.63
2023-05-21T07:56:13.283Z,101236.66
2023-05-21T07:59:09.445Z,101251.91
2023-05-21T08:01:43.259Z,101265.78
2023-05-21T08:04:15.937Z,101255.75
2023-05-21T08:06:42.853Z,101289.38
2023-05-21T08:09:09.576Z,101267.34
2023-05-21T08:11:36.419Z,101256.34
2023-05-21T08:14:03.300Z,101258.16
2023-05-21T08:16:30.196Z,101231.06
2023-05-21T08:18:57.072Z,101232.22
2023-05-21T08:21:24.019Z,101208.16
2023-05-21T08:23:53.327Z,101257.13
2023-05-21T08:26:20.155Z,101236.97
2023-05-21T08:28:46.987Z,101290.84
2023-05-21T08:31:13.806Z,101230.72
2023-05-21T08:33:40.389Z,101235.66
2023-05-21T08:36:07.668Z,101287.06
2023-05-21T08:38:34.663Z,101269.56
2023-05-21T08:41:01.252Z,101275.53
2023-05-21T08:43:28.656Z,101283.47
2023-05-21T08:45:59.061Z,101285.59
2023-05-21T08:48:25.872Z,101285.06
2023-05-21T08:50:54.556Z,101285.34
2023-05-21T08:53:28.178Z,101291.09
2023-05-21T08:55:57.177Z,101272.09
2023-05-21T08:58:24.327Z,101289.88
2023-05-21T09:00:51.097Z,101276.53
2023-05-21T09:03:17.828Z,101284.34
2023-05-21T09:05:45.959Z,101275.09
2023-05-21T09:08:21.773Z,101277.84
2023-05-21T09:10:50.601Z,101284.22
2023-05-21T09:13:18.198Z,101279.97
2023-05-21T09:15:48.766Z,101275.91
2023-05-21T09:18:15.305Z,101280.09
2023-05-21T09:20:41.883Z,101278.56
2023-05-21T09:23:16.460Z,101269.75
2023-05-21T09:25:48.206Z,101276.25
2023-05-21T09:28:16.327Z,101269.41
2023-05-21T09:30:53.617Z,101273.59
2023-05-21T09:33:27.289Z,101283.53
2023-05-21T09:35:53.913Z,101278.88
2023-05-21T09:38:23.625Z,101274.94
2023-05-21T09:40:50.206Z,101267.97
2023-05-21T09:43:17.222Z,101263.88
2023-05-21T09:45:55.305Z,101268.97
2023-05-21T09:48:42.128Z,101257.13
2023-05-21T09:51:10.190Z,101260.81
2023-05-21T09:53:37.140Z,101248.53
2023-05-21T09:56:05.404Z,101256.69
2023-05-21T09:58:32.377Z,101258.41
2023-05-21T10:00:59.017Z,101255.50
2023-05-21T10:03:28.646Z,101245.94
2023-05-21T10:05:56.775Z,101239.00
2023-05-21T10:08:26.892Z,101249.53
2023-05-21T10:10:53.945Z,101238.38
2023-05-21T10:13:23.529Z,101237.84
2023-05-21T10:15:55.776Z,101236.63
2023-05-21T10:18:23.543Z,101236.03
2023-05-21T10:20:51.268Z,101230.50
2023-05-21T10:23:18.789Z,101231.69
2023-05-21T10:25:46.123Z,101220.81
2023-05-21T10:28:17.135Z,101223.53
2023-05-21T10:30:44.472Z,101213.19
2023-05-21T10:33:16.285Z,101214.81
2023-05-21T10:35:44.923Z,101220.66
2023-05-21T10:38:13.639Z,101214.56
2023-05-21T10:40:40.435Z,101212.91
2023-05-21T10:43:26.571Z,101210.50
2023-05-21T10:46:17.741Z,101207.53
2023-05-21T10:49:02.520Z,101209.06
2023-05-21T10:51:42.549Z,101205.69
2023-05-21T10:54:18.296Z,101200.56
2023-05-21T10:57:09.872Z,101210.25
2023-05-21T10:59:42.264Z,101212.41
2023-05-21T11:02:11.411Z,101203.59
2023-05-21T11:04:40.189Z,101203.81
2023-05-21T11:07:06.737Z,101197.22
2023-05-21T11:09:33.297Z,101199.91
2023-05-21T11:12:00.999Z,101201.56
2023-05-21T11:14:32.587Z,101204.38
2023-05-21T11:17:02.369Z,101196.66
2023-05-21T11:19:43.508Z,101192.56
2023-05-21T11:22:11.363Z,101192.78
2023-05-21T11:24:40.591Z,101169.84
2023-05-21T11:27:07.327Z,101179.97
2023-05-21T11:29:42.287Z,101180.63
2023-05-21T11:32:10.381Z,101174.59
2023-05-21T11:34:47.069Z,101173.00
2023-05-21T11:37:22.505Z,101181.63
2023-05-21T11:39:50.503Z,101171.13
2023-05-21T11:42:28.862Z,101177.59
2023-05-21T11:44:59.090Z,101179.78
2023-05-21T11:47:27.126Z,101162.38
2023-05-21T11:49:54.206Z,101163.94
2023-05-21T11:52:21.339Z,101168.22
2023-05-21T11:54:51.170Z,101169.53
2023-05-21T11:57:19.403Z,101169.00
2023-05-21T11:59:46.608Z,101173.38
2023-05-21T12:02:17.361Z,101172.84
2023-05-21T12:04:45.638Z,101173.63
2023-05-21T12:07:15.893Z,101159.91
2023-05-21T12:09:51.977Z,101158.25
2023-05-21T12:12:35.356Z,101159.34
2023-05-21T12:15:10.211Z,101155.06
2023-05-21T12:17:36.844Z,101160.19
2023-05-21T12:20:07.351Z,101166.13
2023-05-21T12:22:33.936Z,101173.38
2023-05-21T12:25:01.074Z,101170.13
2023-05-21T12:27:28.247Z,101162.53
2023-05-21T12:29:55.067Z,101159.75
2023-05-21T12:32:22.112Z,101170.34
2023-05-21T12:34:54.594Z,101169.66
2023-05-21T12:37:27.133Z,101157.63
2023-05-21T12:39:55.905Z,101168.88
2023-05-21T12:42:30.639Z,101170.25
2023-05-21T12:44:58.242Z,101163.97
2023-05-21T12:47:26.542Z,101164.16
2023-05-21T12:50:00.682Z,101169.91
2023-05-21T12:52:27.854Z,101161.94
2023-05-21T12:54:58.913Z,101163.53
2023-05-21T12:57:28.214Z,101164.91
2023-05-21T12:59:59.511Z,101163.63
2023-05-21T13:02:32.453Z,101156.16
2023-05-21T13:05:01.165Z,101161.47
2023-05-21T13:07:29.538Z,101156.22
2023-05-21T13:09:56.321Z,101153.53
2023-05-21T13:12:27.260Z,101162.78
2023-05-21T13:14:55.877Z,101149.03
2023-05-21T13:17:23.541Z,101138.34
2023-05-21T13:20:12.512Z,101154.06
2023-05-21T13:22:57.259Z,101144.56
2023-05-21T13:25:28.772Z,101145.06
2023-05-21T13:27:56.167Z,101131.31
2023-05-21T13:30:22.769Z,101144.72
2023-05-21T13:32:49.407Z,101145.75
2023-05-21T13:35:16.610Z,101144.66
2023-05-21T13:37:43.782Z,101138.47
2023-05-21T13:40:14.489Z,101140.22
2023-05-21T13:42:41.670Z,101135.31
2023-05-21T13:45:10.577Z,101127.44
2023-05-21T13:47:39.929Z,101138.44
2023-05-21T13:50:08.377Z,101131.47
2023-05-21T13:52:35.052Z,101128.97
2023-05-21T13:55:01.567Z,101127.97
2023-05-21T13:57:30.704Z,101120.16
2023-05-21T13:59:58.083Z,101118.78
2023-05-21T14:02:24.664Z,101129.72
2023-05-21T14:04:51.266Z,101125.22
2023-05-21T14:07:17.944Z,101120.56
2023-05-21T14:09:44.474Z,101129.19
2023-05-21T14:12:10.988Z,101121.44
2023-05-21T14:14:37.987Z,101108.94
2023-05-21T14:17:04.679Z,101105.63
2023-05-21T14:19:31.794Z,101103.94
2023-05-21T14:21:59.845Z,101100.50
2023-05-21T14:24:26.467Z,101107.97
2023-05-21T14:26:53.010Z,101087.44
2023-05-21T14:29:19.474Z,101100.41
2023-05-21T14:31:46.441Z,101094.22
2023-05-21T14:34:12.989Z,101088.47
2023-05-21T14:36:39.600Z,101081.16
2023-05-21T14:39:06.260Z,101076.63
2023-05-21T14:41:32.826Z,101076.22
2023-05-21T14:43:59.399Z,101078.59
2023-05-21T14:46:26.140Z,101073.13
2023-05-21T14:48:52.837Z,101076.16
2023-05-21T14:51:19.407Z,101076.28
2023-05-21T14:53:45.911Z,101068.81
2023-05-21T14:56:12.596Z,101073.53
2023-05-21T14:58:39.334Z,101070.31
2023-05-21T15:01:05.986Z,101057.47
2023-05-21T15:03:32.801Z,101041.28
2023-05-21T15:05:59.580Z,101048.38
2023-05-21T15:08:26.230Z,101043.44
2023-05-21T15:10:52.851Z,101038.88
2023-05-21T15:13:21.325Z,101055.34
2023-05-21T15:15:49.674Z,101058.81
2023-05-21T15:18:16.394Z,101047.44
2023-05-21T15:20:43.004Z,101057.75
2023-05-21T15:23:16.676Z,101045.06
2023-05-21T15:25:44.492Z,101046.06
2023-05-21T15:28:12.203Z,101044.38
2023-05-21T15:30:39.064Z,101072.50
2023-05-21T15:33:05.836Z,101043.41
2023-05-21T15:35:37.742Z,101076.72
2023-05-21T15:38:04.720Z,101073.06
2023-05-21T15:40:32.011Z,101076.16
2023-05-21T15:42:58.554Z,101075.56
2023-05-21T15:45:25.288Z,101082.91
2023-05-21T15:47:51.941Z,101070.63
2023-05-21T15:50:18.594Z,101057.19
2023-05-21T15:52:45.262Z,101081.03
2023-05-21T15:55:12.107Z,101048.25
2023-05-21T15:57:38.631Z,101072.81
2023-05-21T16:00:06.421Z,101059.94
2023-05-21T16:02:37.734Z,101075.91
2023-05-21T16:05:04.708Z,101059.28
2023-05-21T16:07:31.239Z,101080.56
2023-05-21T16:09:57.887Z,101043.00
2023-05-21T16:12:26.576Z,101041.91
2023-05-21T16:14:53.286Z,101052.16
2023-05-21T16:17:19.969Z,101062.09
2023-05-21T16:19:47.429Z,101068.19
2023-05-21T16:22:14.334Z,101072.53
2023-05-21T16:24:40.897Z,101057.56
2023-05-21T16:27:07.412Z,101062.94
2023-05-21T16:29:33.874Z,101060.28
2023-05-21T16:32:02.562Z,101058.97
2023-05-21T16:34:29.230Z,101037.75
2023-05-21T16:36:55.832Z,101051.22
2023-05-21T16:39:22.449Z,101029.75
2023-05-21T16:41:48.959Z,101038.13
2023-05-21T16:44:15.458Z,101043.75
2023-05-21T16:46:42.446Z,101009.13
2023-05-21T16:49:08.928Z,101028.22
2023-05-21T16:51:35.408Z,101021.50
2023-05-21T16:54:04.493Z,101036.84
2023-05-21T16:56:31.318Z,101020.19
2023-05-21T16:58:57.836Z,101023.94
2023-05-21T17:01:24.410Z,101026.88
2023-05-21T17:03:51.205Z,101010.28
2023-05-21T17:06:17.985Z,101020.47
2023-05-21T17:08:44.463Z,101012.66
2023-05-21T17:11:11.130Z,101017.47
2023-05-21T17:13:37.613Z,101014.78
2023-05-21T17:16:04.444Z,101017.19
2023-05-21T17:18:31.341Z,101013.19
2023-05-21T17:20:59.098Z,101013.19
2023-05-21T17:23:25.645Z,100998.97
2023-05-21T17:25:52.560Z,101017.00
2023-05-21T17:28:21.237Z,101018.59
2023-05-21T17:30:49.677Z,101002.19
2023-05-21T17:33:16.817Z,101013.44
2023-05-21T17:35:43.511Z,101018.19
2023-05-21T17:38:10.328Z,101011.47
2023-05-21T17:40:36.880Z,101014.00
2023-05-21T17:43:04.573Z,101017.22
2023-05-21T17:45:31.070Z,101015.88
2023-05-21T17:47:59.985Z,101028.00
2023-05-21T17:50:27.127Z,101030.41
2023-05-21T17:52:53.621Z,101031.94
2023-05-21T17:55:20.432Z,101034.34
2023-05-21T17:57:46.874Z,101034.03
2023-05-21T18:00:13.603Z,101033.47
2023-05-21T18:02:40.105Z,101031.53
2023-05-21T18:05:06.822Z,101026.38
2023-05-21T18:07:33.265Z,101032.78
2023-05-21T18:09:59.833Z,101031.69
2023-05-21T18:12:26.327Z,101017.41
2023-05-21T18:14:52.863Z,101027.03
2023-05-21T18:17:19.338Z,101031.28
2023-05-21T18:19:45.810Z,101017.84
2023-05-21T18:22:12.347Z,101033.06
2023-05-21T18:24:39.772Z,101028.69
2023-05-21T18:27:06.656Z,101024.06
2023-05-21T18:29:33.221Z,101010.81
2023-05-21T18:31:59.816Z,101023.59
2023-05-21T18:34:26.338Z,101024.56
2023-05-21T18:36:54.545Z,101013.25
2023-05-21T18:39:24.602Z,101022.03
2023-05-21T18:41:55.770Z,101028.34
2023-05-21T18:44:29.648Z,101021.53
2023-05-21T18:46:57.695Z,101020.94
2023-05-21T18:49:24.616Z,101029.41
2023-05-21T18:51:51.278Z,101010.19
2023-05-21T18:54:17.808Z,101008.16
2023-05-21T18:56:44.327Z,101004.63
2023-05-21T18:59:11.074Z,101009.63
2023-05-21T19:01:38.035Z,101015.41
2023-05-21T19:04:05.257Z,101011.78
2023-05-21T19:06:31.975Z,101017.31
2023-05-21T19:08:58.730Z,101017.25
2023-05-21T19:11:31.155Z,101019.53
2023-05-21T19:13:58.995Z,101012.66
2023-05-21T19:16:25.888Z,101016.31
2023-05-21T19:18:52.789Z,101026.91
2023-05-21T19:21:19.470Z,101023.16
2023-05-21T19:23:53.176Z,101030.28
2023-05-21T19:26:22.273Z,101028.81
2023-05-21T19:28:52.967Z,101017.66
2023-05-21T19:31:20.585Z,101034.97
2023-05-21T19:33:47.273Z,101032.91
2023-05-21T19:36:14.403Z,101032.25
2023-05-21T19:38:51.388Z,101033.28
2023-05-21T19:41:18.876Z,101040.88
2023-05-21T19:43:48.980Z,101023.88
2023-05-21T19:46:19.044Z,101031.88
2023-05-21T19:48:46.889Z,101029.34
2023-05-21T19:51:19.437Z,101020.41
2023-05-21T19:53:53.499Z,101019.72
2023-05-21T19:56:20.128Z,101017.94
2023-05-21T19:58:47.951Z,101024.06
2023-05-21T20:01:17.702Z,101029.31
2023-05-21T20:03:45.556Z,101042.63
2023-05-21T20:06:15.536Z,101040.53
2023-05-21T20:08:44.579Z,101037.06
2023-05-21T20:11:11.169Z,101035.91
2023-05-21T20:13:37.747Z,101040.19
2023-05-21T20:16:04.760Z,101027.00
2023-05-21T20:18:31.450Z,101037.63
2023-05-21T20:20:57.997Z,101042.47
2023-05-21T20:23:24.663Z,101074.34
2023-05-21T20:25:51.187Z,101091.00
2023-05-21T20:28:19.777Z,101108.53
2023-05-21T20:31:04.671Z,101110.59
2023-05-21T20:33:33.047Z,101127.56
2023-05-21T20:36:00.439Z,101115.84
2023-05-21T20:38:27.415Z,101140.34
2023-05-21T20:40:55.148Z,101112.47
2023-05-21T20:43:21.736Z,101128.34
2023-05-21T20:45:49.888Z,101123.75
2023-05-21T20:48:16.806Z,101125.25
2023-05-21T20:50:48.874Z,101119.75
2023-05-21T20:53:15.856Z,101132.19
2023-05-21T20:55:44.374Z,101097.66
2023-05-21T20:58:11.673Z,101068.56
2023-05-21T21:00:41.877Z,101073.09
2023-05-21T21:03:11.428Z,101107.25
2023-05-21T21:05:38.796Z,101121.25
2023-05-21T21:08:06.056Z,101108.59
2023-05-21T21:10:33.160Z,101113.72
2023-05-21T21:12:59.644Z,101100.88
2023-05-21T21:15:26.213Z,101087.22
2023-05-21T21:17:52.951Z,101072.34
2023-05-21T21:20:19.497Z,101079.25
2023-05-21T21:22:46.518Z,101079.44
2023-05-21T21:25:16.194Z,101069.47
2023-05-21T21:27:43.304Z,101068.41
2023-05-21T21:30:10.254Z,101059.28
2023-05-21T21:32:36.918Z,101061.06
2023-05-21T21:35:03.537Z,101070.84
2023-05-21T21:37:30.139Z,101078.16
2023-05-21T21:39:56.727Z,101041.59
2023-05-21T21:42:23.358Z,101069.63
2023-05-21T21:44:49.933Z,101059.44
2023-05-21T21:47:16.426Z,101069.66
2023-05-21T21:49:42.919Z,101067.41
2023-05-21T21:52:10.796Z,101066.59
2023-05-21T21:54:37.295Z,101060.06
2023-05-21T21:57:03.818Z,101059.28
2023-05-21T21:59:30.564Z,101060.91
2023-05-21T22:01:57.251Z,101056.25
2023-05-21T22:04:23.798Z,101042.00
2023-05-21T22:06:50.258Z,101057.91
2023-05-21T22:09:17.535Z,101034.13
2023-05-21T22:12:04.354Z,101094.41
2023-05-21T22:14:31.098Z,101133.56
2023-05-21T22:16:57.923Z,101112.00
2023-05-21T22:19:32.940Z,101112.63
2023-05-21T22:22:17.954Z,101093.09
2023-05-21T22:24:44.434Z,101113.44
2023-05-21T22:27:11.266Z,101092.66
2023-05-21T22:29:37.842Z,101076.16
2023-05-21T22:32:04.998Z,101098.31
2023-05-21T22:34:31.492Z,101087.91
2023-05-21T22:36:58.094Z,101084.44
2023-05-21T22:39:24.588Z,101073.06
2023-05-21T22:41:51.192Z,101074.72
2023-05-21T22:44:17.811Z,101067.34
2023-05-21T22:49:41.023Z,101011.22
2023-05-21T22:52:09.413Z,101049.84
2023-05-21T22:54:36.349Z,101067.53
2023-05-21T22:57:06.142Z,101042.75
2023-05-21T22:59:34.509Z,101055.59
2023-05-21T23:02:01.330Z,101038.09
2023-05-21T23:04:43.126Z,101084.28
2023-05-21T23:07:10.746Z,101059.28
2023-05-21T23:09:37.361Z,101012.91
2023-05-21T23:12:10.539Z,101007.03
2023-05-21T23:14:37.226Z,100972.22
2023-05-21T23:17:04.656Z,100985.63
2023-05-21T23:19:32.872Z,101008.44
2023-05-21T23:22:00.325Z,100994.59
2023-05-21T23:24:26.903Z,101009.81
2023-05-21T23:26:56.599Z,101014.69
2023-05-21T23:29:24.674Z,101003.50
2023-05-21T23:31:54.761Z,100992.09
2023-05-21T23:34:25.954Z,101004.53
2023-05-21T23:36:53.899Z,100994.78
2023-05-21T23:39:24.247Z,100989.53
2023-05-21T23:41:53.691Z,101013.91
2023-05-21T23:44:21.445Z,101011.88
2023-05-21T23:46:51.806Z,101003.53
2023-05-21T23:49:27.399Z,101004.75
2023-05-21T23:51:55.191Z,101008.03
2023-05-21T23:54:23.429Z,101003.13
2023-05-21T23:56:52.643Z,101038.34
2023-05-21T23:59:28.827Z,101037.75
